createdAt,value
2019-01-27T00:00:30.114Z,3.70
2019-01-27T00:01:35.937Z,3.70
2019-01-27T00:02:40.746Z,3.70
2019-01-27T00:03:46.569Z,3.70
2019-01-27T00:04:51.139Z,3.70
2019-01-27T00:05:55.749Z,3.70
2019-01-27T00:07:00.415Z,3.70
2019-01-27T00:08:05.348Z,3.70
2019-01-27T00:09:11.906Z,3.70
2019-01-27T00:10:16.545Z,3.70
2019-01-27T00:11:21.134Z,3.70
2019-01-27T00:12:25.743Z,3.70
2019-01-27T00:13:30.440Z,3.70
2019-01-27T00:14:35.099Z,3.70
2019-01-27T00:15:39.775Z,3.70
2019-01-27T00:16:44.539Z,3.70
2019-01-27T00:17:49.209Z,3.70
2019-01-27T00:18:53.750Z,3.70
2019-01-27T00:19:58.379Z,3.70
2019-01-27T00:21:03.090Z,3.60
2019-01-27T00:22:07.779Z,3.60
2019-01-27T00:23:12.437Z,3.60
2019-01-27T00:24:17.016Z,3.60
2019-01-27T00:25:22.546Z,3.60
2019-01-27T00:26:27.166Z,3.60
2019-01-27T00:27:31.775Z,3.60
2019-01-27T00:28:36.447Z,3.60
2019-01-27T00:29:41.029Z,3.60
2019-01-27T00:30:45.710Z,3.60
2019-01-27T00:31:50.250Z,3.60
2019-01-27T00:32:55.101Z,3.60
2019-01-27T00:33:59.739Z,3.60
2019-01-27T00:35:05.159Z,3.60
2019-01-27T00:36:09.838Z,3.60
2019-01-27T00:37:14.450Z,3.60
2019-01-27T00:38:19.074Z,3.60
2019-01-27T00:39:23.686Z,3.60
2019-01-27T00:40:28.459Z,3.60
2019-01-27T00:41:33.115Z,3.60
2019-01-27T00:42:37.816Z,3.60
2019-01-27T00:43:42.426Z,3.60
2019-01-27T00:44:47.001Z,3.60
2019-01-27T00:45:51.635Z,3.60
2019-01-27T00:46:56.283Z,3.60
2019-01-27T00:48:00.874Z,3.60
2019-01-27T00:49:05.601Z,3.60
2019-01-27T00:50:11.867Z,3.60
2019-01-27T00:51:16.543Z,3.60
2019-01-27T00:52:21.147Z,3.60
2019-01-27T00:53:25.879Z,3.60
2019-01-27T00:54:30.542Z,3.60
2019-01-27T00:55:35.161Z,3.60
2019-01-27T00:56:39.806Z,3.60
2019-01-27T00:57:44.545Z,3.50
2019-01-27T00:58:49.164Z,3.50
2019-01-27T00:59:53.775Z,3.60
2019-01-27T01:00:58.434Z,3.50
2019-01-27T01:02:03.196Z,3.50
2019-01-27T01:03:08.017Z,3.50
2019-01-27T01:04:12.590Z,3.50
2019-01-27T01:05:17.233Z,3.50
2019-01-27T01:06:21.866Z,3.50
2019-01-27T01:07:26.469Z,3.50
2019-01-27T01:08:31.160Z,3.50
2019-01-27T01:09:35.809Z,3.50
2019-01-27T01:10:40.526Z,3.50
2019-01-27T01:11:45.161Z,3.50
2019-01-27T01:12:49.836Z,3.50
2019-01-27T01:13:54.460Z,3.50
2019-01-27T01:14:59.076Z,3.50
2019-01-27T01:16:04.197Z,3.50
2019-01-27T01:17:08.892Z,3.50
2019-01-27T01:18:13.474Z,3.50
2019-01-27T01:19:18.144Z,3.50
2019-01-27T01:20:23.031Z,3.50
2019-01-27T01:21:27.802Z,3.50
2019-01-27T01:22:32.539Z,3.50
2019-01-27T01:23:37.186Z,3.50
2019-01-27T01:24:41.839Z,3.50
2019-01-27T01:25:46.410Z,3.50
2019-01-27T01:26:51.063Z,3.50
2019-01-27T01:27:55.786Z,3.50
2019-01-27T01:29:00.362Z,3.50
2019-01-27T01:30:06.408Z,3.50
2019-01-27T01:31:11.058Z,3.50
2019-01-27T01:32:15.837Z,3.50
2019-01-27T01:33:20.497Z,3.50
2019-01-27T01:34:26.082Z,3.50
2019-01-27T01:35:30.743Z,3.40
2019-01-27T01:36:35.414Z,3.40
2019-01-27T01:37:40.079Z,3.40
2019-01-27T01:38:44.764Z,3.40
2019-01-27T01:39:49.370Z,3.40
2019-01-27T01:40:54.096Z,3.40
2019-01-27T01:41:58.681Z,3.40
2019-01-27T01:43:03.343Z,3.40
2019-01-27T01:44:07.949Z,3.30
2019-01-27T01:45:18.157Z,3.40
2019-01-27T01:46:22.811Z,3.30
2019-01-27T01:47:27.409Z,3.30
2019-01-27T01:48:31.935Z,3.30
2019-01-27T01:49:36.514Z,3.30
2019-01-27T01:50:41.106Z,3.30
2019-01-27T01:51:45.754Z,3.30
2019-01-27T01:52:50.330Z,3.30
2019-01-27T01:53:54.923Z,3.30
2019-01-27T01:54:59.553Z,3.30
2019-01-27T01:56:04.350Z,3.30
2019-01-27T01:57:09.043Z,3.20
2019-01-27T01:58:13.707Z,3.20
2019-01-27T01:59:18.310Z,3.20
2019-01-27T02:00:24.701Z,3.20
2019-01-27T02:01:29.295Z,3.20
2019-01-27T02:02:33.907Z,3.20
2019-01-27T02:03:38.545Z,3.20
2019-01-27T02:04:43.192Z,3.20
2019-01-27T02:05:47.860Z,3.20
2019-01-27T02:06:52.420Z,3.20
2019-01-27T02:07:57.139Z,3.20
2019-01-27T02:09:01.820Z,3.20
2019-01-27T02:10:09.595Z,3.20
2019-01-27T02:11:14.265Z,3.20
2019-01-27T02:12:18.899Z,3.20
2019-01-27T02:13:23.523Z,3.20
2019-01-27T02:14:28.210Z,3.10
2019-01-27T02:16:11.256Z,3.10
2019-01-27T02:17:15.915Z,3.10
2019-01-27T02:18:20.575Z,3.10
2019-01-27T02:19:25.261Z,3.10
2019-01-27T02:20:29.929Z,3.10
2019-01-27T02:21:35.033Z,3.10
2019-01-27T02:22:39.797Z,3.10
2019-01-27T02:23:44.374Z,3.10
2019-01-27T02:24:49.015Z,3.10
2019-01-27T02:25:53.766Z,3.10
2019-01-27T02:26:58.333Z,3.10
2019-01-27T02:28:02.977Z,3.10
2019-01-27T02:29:07.623Z,3.10
2019-01-27T02:30:12.534Z,3.10
2019-01-27T02:31:17.288Z,3.10
2019-01-27T02:32:22.000Z,3.00
2019-01-27T02:33:26.599Z,3.10
2019-01-27T02:34:31.304Z,3.10
2019-01-27T02:35:35.887Z,3.00
2019-01-27T02:36:40.536Z,3.00
2019-01-27T02:37:45.189Z,3.00
2019-01-27T02:38:49.761Z,3.00
2019-01-27T02:39:54.345Z,3.00
2019-01-27T02:40:58.983Z,3.00
2019-01-27T02:42:03.647Z,3.00
2019-01-27T02:43:08.256Z,3.00
2019-01-27T02:44:12.870Z,3.00
2019-01-27T02:45:17.531Z,3.00
2019-01-27T02:46:22.125Z,3.00
2019-01-27T02:47:26.733Z,3.00
2019-01-27T02:48:31.344Z,3.00
2019-01-27T02:49:35.939Z,3.00
2019-01-27T02:50:40.580Z,3.00
2019-01-27T02:51:45.287Z,3.00
2019-01-27T02:52:49.934Z,3.00
2019-01-27T02:53:54.508Z,2.90
2019-01-27T02:54:59.159Z,2.90
2019-01-27T02:56:04.247Z,2.90
2019-01-27T02:57:08.844Z,2.90
2019-01-27T02:58:13.427Z,2.90
2019-01-27T02:59:18.057Z,2.90
2019-01-27T03:00:22.452Z,2.90
2019-01-27T03:01:27.122Z,2.90
2019-01-27T03:02:31.812Z,2.90
2019-01-27T03:03:36.426Z,2.90
2019-01-27T03:04:41.000Z,2.90
2019-01-27T03:06:10.963Z,2.90
2019-01-27T03:07:35.600Z,2.90
2019-01-27T03:08:53.547Z,2.90
2019-01-27T03:09:58.190Z,2.90
2019-01-27T03:11:02.849Z,2.90
2019-01-27T03:12:07.874Z,2.90
2019-01-27T03:13:12.522Z,2.90
2019-01-27T03:14:19.663Z,2.90
2019-01-27T03:15:24.423Z,2.90
2019-01-27T03:16:29.054Z,2.90
2019-01-27T03:17:33.634Z,2.90
2019-01-27T03:18:38.247Z,2.90
2019-01-27T03:19:43.134Z,2.90
2019-01-27T03:20:47.746Z,2.90
2019-01-27T03:21:52.380Z,2.90
2019-01-27T03:22:57.003Z,2.90
2019-01-27T03:24:01.675Z,2.90
2019-01-27T03:25:08.456Z,2.90
2019-01-27T03:26:13.031Z,2.90
2019-01-27T03:27:17.636Z,2.90
2019-01-27T03:28:22.238Z,2.90
2019-01-27T03:29:26.793Z,2.90
2019-01-27T03:30:31.350Z,2.90
2019-01-27T03:31:35.979Z,2.90
2019-01-27T03:32:40.642Z,2.90
2019-01-27T03:33:45.206Z,2.90
2019-01-27T03:34:49.873Z,2.90
2019-01-27T03:35:54.442Z,2.90
2019-01-27T03:36:59.082Z,2.90
2019-01-27T03:38:03.907Z,2.90
2019-01-27T03:39:10.419Z,2.90
2019-01-27T03:40:15.195Z,2.90
2019-01-27T03:41:19.928Z,2.90
2019-01-27T03:42:24.570Z,2.90
2019-01-27T03:43:29.320Z,2.90
2019-01-27T03:44:34.950Z,2.90
2019-01-27T03:45:39.539Z,2.90
2019-01-27T03:46:44.266Z,2.90
2019-01-27T03:47:48.939Z,2.90
2019-01-27T03:48:53.565Z,2.90
2019-01-27T03:49:58.143Z,2.90
2019-01-27T03:51:02.743Z,2.90
2019-01-27T03:52:07.436Z,2.90
2019-01-27T03:53:12.198Z,2.90
2019-01-27T03:54:16.892Z,2.90
2019-01-27T03:55:21.564Z,2.90
2019-01-27T03:56:26.274Z,2.90
2019-01-27T03:57:30.987Z,2.90
2019-01-27T03:58:35.605Z,2.90
2019-01-27T03:59:40.190Z,2.80
2019-01-27T04:00:44.777Z,2.90
2019-01-27T04:01:49.422Z,2.90
2019-01-27T04:02:54.042Z,2.90
2019-01-27T04:03:58.725Z,2.90
2019-01-27T04:05:03.422Z,2.80
2019-01-27T04:06:08.077Z,2.80
2019-01-27T04:07:12.710Z,2.80
2019-01-27T04:08:17.291Z,2.80
2019-01-27T04:09:21.879Z,2.80
2019-01-27T04:10:26.594Z,2.80
2019-01-27T04:11:31.167Z,2.80
2019-01-27T04:12:35.832Z,2.90
2019-01-27T04:13:40.459Z,2.90
2019-01-27T04:14:45.071Z,2.90
2019-01-27T04:15:49.669Z,2.90
2019-01-27T04:16:54.274Z,2.90
2019-01-27T04:17:58.841Z,2.80
2019-01-27T04:19:03.507Z,2.90
2019-01-27T04:20:11.681Z,2.80
2019-01-27T04:21:16.411Z,2.80
2019-01-27T04:22:21.051Z,2.80
2019-01-27T04:23:25.764Z,2.80
2019-01-27T04:24:30.354Z,2.80
2019-01-27T04:25:34.919Z,2.80
2019-01-27T04:26:39.512Z,2.80
2019-01-27T04:27:44.136Z,2.80
2019-01-27T04:28:48.747Z,2.80
2019-01-27T04:29:53.406Z,2.80
2019-01-27T04:30:58.077Z,2.80
2019-01-27T04:32:02.689Z,2.80
2019-01-27T04:33:07.288Z,2.80
2019-01-27T04:34:11.980Z,2.70
2019-01-27T04:35:16.649Z,2.80
2019-01-27T04:36:21.272Z,2.70
2019-01-27T04:37:25.946Z,2.70
2019-01-27T04:38:30.513Z,2.70
2019-01-27T04:39:35.259Z,2.70
2019-01-27T04:40:39.931Z,2.70
2019-01-27T04:41:44.490Z,2.70
2019-01-27T04:42:49.085Z,2.70
2019-01-27T04:43:53.766Z,2.70
2019-01-27T04:44:58.412Z,2.70
2019-01-27T04:46:03.069Z,2.70
2019-01-27T04:47:07.726Z,2.70
2019-01-27T04:48:12.300Z,2.70
2019-01-27T04:49:16.973Z,2.70
2019-01-27T04:50:21.593Z,2.70
2019-01-27T04:51:26.166Z,2.70
2019-01-27T04:52:30.795Z,2.80
2019-01-27T04:53:35.438Z,2.80
2019-01-27T04:54:40.131Z,2.80
2019-01-27T04:55:44.734Z,2.80
2019-01-27T04:56:49.342Z,2.80
2019-01-27T04:57:54.035Z,2.80
2019-01-27T04:58:58.623Z,2.80
2019-01-27T05:00:03.736Z,2.80
2019-01-27T05:01:08.312Z,2.80
2019-01-27T05:02:12.906Z,2.80
2019-01-27T05:03:35.835Z,2.80
2019-01-27T05:04:41.452Z,2.80
2019-01-27T05:05:46.029Z,2.80
2019-01-27T05:06:50.615Z,2.80
2019-01-27T05:07:55.196Z,2.80
2019-01-27T05:08:59.979Z,2.80
2019-01-27T05:10:05.959Z,2.80
2019-01-27T05:11:11.610Z,2.80
2019-01-27T05:12:16.474Z,2.80
2019-01-27T05:13:21.104Z,2.80
2019-01-27T05:14:25.710Z,2.80
2019-01-27T05:15:30.642Z,2.80
2019-01-27T05:16:35.255Z,2.80
2019-01-27T05:17:39.849Z,2.80
2019-01-27T05:18:44.611Z,2.80
2019-01-27T05:19:49.213Z,2.80
2019-01-27T05:20:53.805Z,2.80
2019-01-27T05:21:58.425Z,2.80
2019-01-27T05:23:03.121Z,2.80
2019-01-27T05:24:08.734Z,2.80
2019-01-27T05:25:13.468Z,2.80
2019-01-27T05:26:18.119Z,2.90
2019-01-27T05:27:22.722Z,2.80
2019-01-27T05:28:27.278Z,2.80
2019-01-27T05:29:31.859Z,2.80
2019-01-27T05:30:36.460Z,2.80
2019-01-27T05:31:41.889Z,2.80
2019-01-27T05:32:46.470Z,2.80
2019-01-27T05:33:51.052Z,2.80
2019-01-27T05:34:55.646Z,2.80
2019-01-27T05:36:00.341Z,2.80
2019-01-27T05:37:04.936Z,2.80
2019-01-27T05:38:09.604Z,2.80
2019-01-27T05:39:14.179Z,2.70
2019-01-27T05:40:18.886Z,2.70
2019-01-27T05:41:23.479Z,2.70
2019-01-27T05:42:28.095Z,2.70
2019-01-27T05:43:32.666Z,2.70
2019-01-27T05:44:37.244Z,2.70
2019-01-27T05:45:41.830Z,2.70
2019-01-27T05:46:46.425Z,2.70
2019-01-27T05:47:51.066Z,2.70
2019-01-27T05:48:55.650Z,2.70
2019-01-27T05:50:00.347Z,2.70
2019-01-27T05:51:05.066Z,2.70
2019-01-27T05:52:09.633Z,2.60
2019-01-27T05:53:14.287Z,2.60
2019-01-27T05:54:20.199Z,2.70
2019-01-27T05:55:24.835Z,2.60
2019-01-27T05:56:29.455Z,2.70
2019-01-27T05:57:34.100Z,2.70
2019-01-27T05:58:38.773Z,2.70
2019-01-27T05:59:43.354Z,2.70
2019-01-27T06:00:48.340Z,2.70
2019-01-27T06:01:53.002Z,2.70
2019-01-27T06:02:57.671Z,2.70
2019-01-27T06:04:02.290Z,2.70
2019-01-27T06:05:07.002Z,2.70
2019-01-27T06:06:11.556Z,2.80
2019-01-27T06:07:16.136Z,2.80
2019-01-27T06:08:20.742Z,2.80
2019-01-27T06:09:25.336Z,2.80
2019-01-27T06:10:29.893Z,2.70
2019-01-27T06:11:34.494Z,2.70
2019-01-27T06:12:39.211Z,2.80
2019-01-27T06:13:43.780Z,2.80
2019-01-27T06:14:48.361Z,2.80
2019-01-27T06:15:52.945Z,2.70
2019-01-27T06:16:57.553Z,2.70
2019-01-27T06:18:02.246Z,2.70
2019-01-27T06:19:06.875Z,2.70
2019-01-27T06:20:12.412Z,2.70
2019-01-27T06:21:17.040Z,2.70
2019-01-27T06:22:21.671Z,2.70
2019-01-27T06:23:26.423Z,2.70
2019-01-27T06:24:31.124Z,2.70
2019-01-27T06:25:35.740Z,2.70
2019-01-27T06:26:40.363Z,2.70
2019-01-27T06:27:45.273Z,2.70
2019-01-27T06:28:49.885Z,2.70
2019-01-27T06:29:54.613Z,2.70
2019-01-27T06:30:59.243Z,2.70
2019-01-27T06:32:03.836Z,2.70
2019-01-27T06:33:19.897Z,2.70
2019-01-27T06:34:24.470Z,2.80
2019-01-27T06:35:29.092Z,2.80
2019-01-27T06:36:33.682Z,2.80
2019-01-27T06:37:38.321Z,2.80
2019-01-27T06:38:42.942Z,2.80
2019-01-27T06:39:47.923Z,2.80
2019-01-27T06:40:52.572Z,2.80
2019-01-27T06:41:57.201Z,2.80
2019-01-27T06:43:01.910Z,2.80
2019-01-27T06:44:06.525Z,2.80
2019-01-27T06:45:11.233Z,2.80
2019-01-27T06:46:15.802Z,2.80
2019-01-27T06:47:20.439Z,2.80
2019-01-27T06:48:25.021Z,2.70
2019-01-27T06:49:29.644Z,2.70
2019-01-27T06:50:34.206Z,2.70
2019-01-27T06:51:38.847Z,2.70
2019-01-27T06:52:43.478Z,2.70
2019-01-27T06:53:48.036Z,2.70
2019-01-27T06:54:52.698Z,2.70
2019-01-27T06:55:57.576Z,2.70
2019-01-27T06:57:02.181Z,2.70
2019-01-27T06:58:06.811Z,2.70
2019-01-27T06:59:33.625Z,2.70
2019-01-27T07:00:46.762Z,2.70
2019-01-27T07:02:03.526Z,2.70
2019-01-27T07:03:16.022Z,2.70
2019-01-27T07:04:28.087Z,2.70
2019-01-27T07:05:54.135Z,2.70
2019-01-27T07:07:08.546Z,2.60
2019-01-27T07:08:18.823Z,2.60
2019-01-27T07:09:50.750Z,2.70
2019-01-27T07:11:20.019Z,2.60
2019-01-27T07:12:38.759Z,2.60
2019-01-27T07:14:08.304Z,2.60
2019-01-27T07:15:34.969Z,2.60
2019-01-27T07:17:01.443Z,2.60
2019-01-27T07:18:39.897Z,2.60
2019-01-27T07:20:12.446Z,2.60
2019-01-27T07:21:25.042Z,2.60
2019-01-27T07:22:36.136Z,2.60
2019-01-27T07:24:05.940Z,2.70
2019-01-27T07:25:29.007Z,2.70
2019-01-27T07:26:39.531Z,2.70
2019-01-27T07:28:01.971Z,2.70
2019-01-27T07:29:31.477Z,2.70
2019-01-27T07:31:01.369Z,2.70
2019-01-27T07:32:34.227Z,2.70
2019-01-27T07:33:54.382Z,2.70
2019-01-27T07:35:19.555Z,2.70
2019-01-27T07:36:33.816Z,2.70
2019-01-27T07:37:49.026Z,2.70
2019-01-27T07:39:16.610Z,2.70
2019-01-27T07:40:38.852Z,2.70
2019-01-27T07:41:51.112Z,2.70
2019-01-27T07:43:11.326Z,2.70
2019-01-27T07:44:35.190Z,2.70
2019-01-27T07:45:57.520Z,2.80
2019-01-27T07:47:27.428Z,2.80
2019-01-27T07:49:09.202Z,2.80
2019-01-27T07:50:31.763Z,2.80
2019-01-27T07:51:47.200Z,2.80
2019-01-27T07:52:58.946Z,2.80
2019-01-27T07:54:29.224Z,2.90
2019-01-27T07:55:51.633Z,2.90
2019-01-27T07:57:04.670Z,2.90
2019-01-27T07:58:21.060Z,2.90
2019-01-27T07:59:45.136Z,2.90
2019-01-27T08:01:08.875Z,2.90
2019-01-27T08:02:30.236Z,2.90
2019-01-27T08:03:44.619Z,2.90
2019-01-27T08:05:08.662Z,3.00
2019-01-27T08:06:20.583Z,3.00
2019-01-27T08:07:34.245Z,3.00
2019-01-27T08:09:10.439Z,3.10
2019-01-27T08:10:26.983Z,3.10
2019-01-27T08:11:56.694Z,3.10
2019-01-27T08:13:16.640Z,3.10
2019-01-27T08:14:58.390Z,3.20
2019-01-27T08:16:22.255Z,3.20
2019-01-27T08:17:33.812Z,3.20
2019-01-27T08:18:57.514Z,3.30
2019-01-27T08:20:21.363Z,3.30
2019-01-27T08:21:32.250Z,3.30
2019-01-27T08:22:54.920Z,3.30
2019-01-27T08:24:17.482Z,3.30
2019-01-27T08:25:32.236Z,3.30
2019-01-27T08:26:54.686Z,3.30
2019-01-27T08:28:16.937Z,3.30
2019-01-27T08:29:38.643Z,3.40
2019-01-27T08:31:00.810Z,3.40
2019-01-27T08:32:30.850Z,3.40
2019-01-27T08:33:58.396Z,3.40
2019-01-27T08:35:21.587Z,3.50
2019-01-27T08:36:39.023Z,3.50
2019-01-27T08:37:55.709Z,3.50
2019-01-27T08:39:18.926Z,3.50
2019-01-27T08:40:45.720Z,3.60
2019-01-27T08:42:24.678Z,3.60
2019-01-27T08:43:44.325Z,3.60
2019-01-27T08:44:57.724Z,3.60
2019-01-27T08:46:10.256Z,3.70
2019-01-27T08:47:14.862Z,3.70
2019-01-27T08:48:21.450Z,3.70
2019-01-27T08:49:26.602Z,3.70
2019-01-27T08:50:35.201Z,3.70
2019-01-27T08:51:40.462Z,3.70
2019-01-27T08:52:45.174Z,3.70
2019-01-27T08:53:49.822Z,3.70
2019-01-27T08:54:54.439Z,3.70
2019-01-27T08:55:59.066Z,3.70
2019-01-27T08:57:03.776Z,3.80
2019-01-27T08:58:08.433Z,3.80
2019-01-27T08:59:13.115Z,3.80
2019-01-27T09:00:21.312Z,3.80
2019-01-27T09:01:43.747Z,3.80
2019-01-27T09:03:13.202Z,3.80
2019-01-27T09:04:39.799Z,3.70
2019-01-27T09:05:55.998Z,3.70
2019-01-27T09:07:21.184Z,3.70
2019-01-27T09:08:51.565Z,3.70
2019-01-27T09:10:04.794Z,3.70
2019-01-27T09:11:34.298Z,3.70
2019-01-27T09:12:50.850Z,3.60
2019-01-27T09:14:08.573Z,3.60
2019-01-27T09:15:50.532Z,3.60
2019-01-27T09:17:20.446Z,3.60
2019-01-27T09:18:44.179Z,3.60
2019-01-27T09:20:02.243Z,3.60
2019-01-27T09:21:17.825Z,3.70
2019-01-27T09:22:34.861Z,3.60
2019-01-27T09:23:47.711Z,3.70
2019-01-27T09:25:06.008Z,3.70
2019-01-27T09:26:24.905Z,3.70
2019-01-27T09:27:34.672Z,3.70
2019-01-27T09:29:10.303Z,3.80
2019-01-27T09:30:30.722Z,3.80
2019-01-27T09:31:54.353Z,3.80
2019-01-27T09:33:18.352Z,3.90
2019-01-27T09:34:29.388Z,4.00
2019-01-27T09:35:50.486Z,4.00
2019-01-27T09:37:01.895Z,4.10
2019-01-27T09:38:29.671Z,4.10
2019-01-27T09:39:48.125Z,4.20
2019-01-27T09:41:00.364Z,4.30
2019-01-27T09:42:26.559Z,4.30
2019-01-27T09:43:38.557Z,4.40
2019-01-27T09:44:50.019Z,4.50
2019-01-27T09:46:06.281Z,4.50
2019-01-27T09:47:33.245Z,4.60
2019-01-27T09:48:43.563Z,4.70
2019-01-27T09:49:54.676Z,4.70
2019-01-27T09:51:14.086Z,4.80
2019-01-27T09:52:27.729Z,4.90
2019-01-27T09:53:44.927Z,5.00
2019-01-27T09:55:02.697Z,5.10
2019-01-27T09:56:23.187Z,5.10
2019-01-27T09:57:45.405Z,5.20
2019-01-27T09:58:57.392Z,5.20
2019-01-27T10:00:23.985Z,5.20
2019-01-27T10:01:50.558Z,5.20
2019-01-27T10:03:23.171Z,5.30
2019-01-27T10:04:45.550Z,5.30
2019-01-27T10:06:15.042Z,5.30
2019-01-27T10:07:50.705Z,5.30
2019-01-27T10:09:11.188Z,5.30
2019-01-27T10:10:35.225Z,5.40
2019-01-27T10:11:51.744Z,5.40
2019-01-27T10:13:08.470Z,5.40
2019-01-27T10:14:28.154Z,5.50
2019-01-27T10:15:52.880Z,5.50
2019-01-27T10:17:14.799Z,5.60
2019-01-27T10:18:27.345Z,5.50
2019-01-27T10:19:49.835Z,5.50
2019-01-27T10:21:07.675Z,5.50
2019-01-27T10:22:37.487Z,5.50
2019-01-27T10:24:01.639Z,5.40
2019-01-27T10:25:17.705Z,5.40
2019-01-27T10:26:32.703Z,5.40
2019-01-27T10:27:44.552Z,5.40
2019-01-27T10:28:55.612Z,5.40
2019-01-27T10:30:17.836Z,5.30
2019-01-27T10:31:41.325Z,5.40
2019-01-27T10:33:23.321Z,5.40
2019-01-27T10:34:36.611Z,5.40
2019-01-27T10:35:58.979Z,5.50
2019-01-27T10:37:17.150Z,5.50
2019-01-27T10:38:43.685Z,5.50
2019-01-27T10:40:19.367Z,5.60
2019-01-27T10:41:36.738Z,5.60
2019-01-27T10:42:48.199Z,5.60
2019-01-27T10:44:11.734Z,5.60
2019-01-27T10:45:41.312Z,5.60
2019-01-27T10:47:03.545Z,5.50
2019-01-27T10:48:18.496Z,5.50
2019-01-27T10:49:45.265Z,5.50
2019-01-27T10:51:02.835Z,5.50
2019-01-27T10:52:19.090Z,5.50
2019-01-27T10:53:52.037Z,5.50
2019-01-27T10:55:11.736Z,5.60
2019-01-27T10:56:38.403Z,5.60
2019-01-27T10:58:13.954Z,5.70
2019-01-27T10:59:32.863Z,5.70
2019-01-27T11:00:47.045Z,5.80
2019-01-27T11:02:09.422Z,5.80
2019-01-27T11:03:33.296Z,5.80
2019-01-27T11:04:59.215Z,5.80
2019-01-27T11:06:25.230Z,5.70
2019-01-27T11:07:51.895Z,5.70
2019-01-27T11:09:15.677Z,5.70
2019-01-27T11:10:40.249Z,5.70
2019-01-27T11:12:07.707Z,5.60
2019-01-27T11:13:30.198Z,5.60
2019-01-27T11:14:49.058Z,5.60
2019-01-27T11:16:08.417Z,5.60
2019-01-27T11:17:26.886Z,5.50
2019-01-27T11:18:52.350Z,5.50
2019-01-27T11:20:08.958Z,5.50
2019-01-27T11:21:31.452Z,5.50
2019-01-27T11:22:46.306Z,5.50
2019-01-27T11:24:12.698Z,5.50
2019-01-27T11:25:33.684Z,5.50
2019-01-27T11:26:57.634Z,5.50
2019-01-27T11:28:24.186Z,5.50
2019-01-27T11:29:36.638Z,5.50
2019-01-27T11:31:02.815Z,5.60
2019-01-27T11:32:44.647Z,5.60
2019-01-27T11:34:03.826Z,5.50
2019-01-27T11:35:20.798Z,5.50
2019-01-27T11:36:43.114Z,5.60
2019-01-27T11:38:06.869Z,5.60
2019-01-27T11:39:33.320Z,5.60
2019-01-27T11:40:54.501Z,5.60
2019-01-27T11:42:14.428Z,5.60
2019-01-27T11:43:44.783Z,5.60
2019-01-27T11:45:14.251Z,5.60
2019-01-27T11:46:28.286Z,5.70
2019-01-27T11:47:52.008Z,5.70
2019-01-27T11:49:02.040Z,5.70
2019-01-27T11:50:14.751Z,5.80
2019-01-27T11:51:23.444Z,5.80
2019-01-27T11:52:31.830Z,5.80
2019-01-27T11:53:36.476Z,5.80
2019-01-27T11:54:41.110Z,5.80
2019-01-27T11:55:45.744Z,5.80
2019-01-27T11:56:50.462Z,5.80
2019-01-27T11:57:55.156Z,5.80
2019-01-27T11:58:59.801Z,5.80
2019-01-27T12:00:06.107Z,5.80
2019-01-27T12:01:10.904Z,5.70
2019-01-27T12:02:15.592Z,5.70
2019-01-27T12:03:20.443Z,5.70
2019-01-27T12:04:25.055Z,5.70
2019-01-27T12:05:29.836Z,5.70
2019-01-27T12:06:34.656Z,5.70
2019-01-27T12:07:39.229Z,5.70
2019-01-27T12:08:44.769Z,5.70
2019-01-27T12:09:49.427Z,5.70
2019-01-27T12:10:54.083Z,5.80
2019-01-27T12:11:58.779Z,5.80
2019-01-27T12:13:03.708Z,5.80
2019-01-27T12:14:08.355Z,5.80
2019-01-27T12:15:16.067Z,5.80
2019-01-27T12:16:20.825Z,5.90
2019-01-27T12:17:25.567Z,5.90
2019-01-27T12:18:30.236Z,5.80
2019-01-27T12:19:34.843Z,5.80
2019-01-27T12:20:39.545Z,5.80
2019-01-27T12:21:44.238Z,5.80
2019-01-27T12:22:48.806Z,5.80
2019-01-27T12:23:53.407Z,5.80
2019-01-27T12:24:58.159Z,5.80
2019-01-27T12:26:02.775Z,5.90
2019-01-27T12:27:07.422Z,5.90
2019-01-27T12:28:12.160Z,5.90
2019-01-27T12:29:16.774Z,5.90
2019-01-27T12:30:21.535Z,6.00
2019-01-27T12:31:26.248Z,5.90
2019-01-27T12:32:30.868Z,5.90
2019-01-27T12:33:35.587Z,5.90
2019-01-27T12:34:40.308Z,5.90
2019-01-27T12:35:44.958Z,5.90
2019-01-27T12:36:49.663Z,5.90
2019-01-27T12:37:54.332Z,5.90
2019-01-27T12:38:59.019Z,5.90
2019-01-27T12:40:04.633Z,5.90
2019-01-27T12:41:09.248Z,5.90
2019-01-27T12:42:13.909Z,6.00
2019-01-27T12:43:18.609Z,6.00
2019-01-27T12:44:23.320Z,6.00
2019-01-27T12:45:27.952Z,5.90
2019-01-27T12:46:32.518Z,6.00
2019-01-27T12:47:37.181Z,6.00
2019-01-27T12:48:41.807Z,6.00
2019-01-27T12:49:46.394Z,6.00
2019-01-27T12:50:51.026Z,6.00
2019-01-27T12:51:55.699Z,6.00
2019-01-27T12:53:00.324Z,6.00
2019-01-27T12:54:05.218Z,6.00
2019-01-27T12:55:11.060Z,6.00
2019-01-27T12:56:15.678Z,5.90
2019-01-27T12:57:20.294Z,5.90
2019-01-27T12:58:24.947Z,5.90
2019-01-27T12:59:29.522Z,5.90
2019-01-27T13:00:40.456Z,5.90
2019-01-27T13:01:45.058Z,5.90
2019-01-27T13:02:49.815Z,5.80
2019-01-27T13:03:54.535Z,5.80
2019-01-27T13:04:59.455Z,5.80
2019-01-27T13:06:04.583Z,5.80
2019-01-27T13:07:09.378Z,5.80
2019-01-27T13:08:14.094Z,5.80
2019-01-27T13:09:18.886Z,5.90
2019-01-27T13:10:23.647Z,5.90
2019-01-27T13:11:28.363Z,5.90
2019-01-27T13:12:32.954Z,5.90
2019-01-27T13:13:37.550Z,5.90
2019-01-27T13:14:42.141Z,5.90
2019-01-27T13:15:47.744Z,5.90
2019-01-27T13:16:52.302Z,6.00
2019-01-27T13:17:56.882Z,6.00
2019-01-27T13:19:01.514Z,6.00
2019-01-27T13:20:07.355Z,6.10
2019-01-27T13:21:11.952Z,6.10
2019-01-27T13:22:16.527Z,6.10
2019-01-27T13:23:21.210Z,6.10
2019-01-27T13:24:26.875Z,6.10
2019-01-27T13:25:31.544Z,6.20
2019-01-27T13:26:36.304Z,6.10
2019-01-27T13:27:42.492Z,6.10
2019-01-27T13:28:47.092Z,6.10
2019-01-27T13:29:51.736Z,6.10
2019-01-27T13:30:56.380Z,6.10
2019-01-27T13:32:01.970Z,6.10
2019-01-27T13:33:06.622Z,6.10
2019-01-27T13:34:11.257Z,6.10
2019-01-27T13:35:15.914Z,6.20
2019-01-27T13:36:20.515Z,6.20
2019-01-27T13:37:25.259Z,6.20
2019-01-27T13:38:29.839Z,6.30
2019-01-27T13:39:34.456Z,6.30
2019-01-27T13:40:39.177Z,6.30
2019-01-27T13:41:43.803Z,6.30
2019-01-27T13:42:48.842Z,6.30
2019-01-27T13:43:54.412Z,6.30
2019-01-27T13:44:58.996Z,6.30
2019-01-27T13:46:03.974Z,6.30
2019-01-27T13:47:08.565Z,6.30
2019-01-27T13:48:13.225Z,6.30
2019-01-27T13:49:17.855Z,6.30
2019-01-27T13:50:22.543Z,6.20
2019-01-27T13:51:27.125Z,6.20
2019-01-27T13:52:31.756Z,6.20
2019-01-27T13:53:36.465Z,6.20
2019-01-27T13:54:41.105Z,6.20
2019-01-27T13:55:45.658Z,6.10
2019-01-27T13:56:50.218Z,6.10
2019-01-27T13:57:54.943Z,6.10
2019-01-27T13:58:59.571Z,6.10
2019-01-27T14:00:06.002Z,6.10
2019-01-27T14:01:10.658Z,6.10
2019-01-27T14:02:15.362Z,6.10
2019-01-27T14:03:20.037Z,6.20
2019-01-27T14:04:24.685Z,6.20
2019-01-27T14:05:29.539Z,6.20
2019-01-27T14:06:34.088Z,6.20
2019-01-27T14:07:38.750Z,6.20
2019-01-27T14:08:43.610Z,6.20
2019-01-27T14:09:48.190Z,6.20
2019-01-27T14:10:52.831Z,6.20
2019-01-27T14:11:57.406Z,6.20
2019-01-27T14:13:02.271Z,6.20
2019-01-27T14:14:06.868Z,6.20
2019-01-27T14:15:14.531Z,6.20
2019-01-27T14:16:19.237Z,6.20
2019-01-27T14:17:24.801Z,6.20
2019-01-27T14:18:30.974Z,6.20
2019-01-27T14:19:35.651Z,6.10
2019-01-27T14:20:40.201Z,6.10
2019-01-27T14:21:44.927Z,6.10
2019-01-27T14:22:49.808Z,6.00
2019-01-27T14:23:54.438Z,6.00
2019-01-27T14:24:59.176Z,6.00
2019-01-27T14:26:05.581Z,5.90
2019-01-27T14:27:10.272Z,5.90
2019-01-27T14:28:14.872Z,5.90
2019-01-27T14:29:19.483Z,5.80
2019-01-27T14:30:26.341Z,5.80
2019-01-27T14:31:30.951Z,5.70
2019-01-27T14:32:35.839Z,5.70
2019-01-27T14:33:40.470Z,5.70
2019-01-27T14:34:45.039Z,5.70
2019-01-27T14:35:49.670Z,5.70
2019-01-27T14:36:54.288Z,5.70
2019-01-27T14:37:58.870Z,5.70
2019-01-27T14:39:05.442Z,5.70
2019-01-27T14:40:13.301Z,5.60
2019-01-27T14:41:18.023Z,5.60
2019-01-27T14:42:22.658Z,5.60
2019-01-27T14:43:27.255Z,5.60
2019-01-27T14:44:32.538Z,5.60
2019-01-27T14:45:37.169Z,5.60
2019-01-27T14:46:41.778Z,5.50
2019-01-27T14:47:46.405Z,5.50
2019-01-27T14:48:50.977Z,5.50
2019-01-27T14:49:55.615Z,5.50
2019-01-27T14:51:01.439Z,5.50
2019-01-27T14:52:06.214Z,5.50
2019-01-27T14:53:11.197Z,5.50
2019-01-27T14:54:16.185Z,5.50
2019-01-27T14:55:20.904Z,5.50
2019-01-27T14:56:28.298Z,5.50
2019-01-27T14:57:33.170Z,5.50
2019-01-27T14:58:38.031Z,5.40
2019-01-27T14:59:42.646Z,5.40
2019-01-27T15:00:47.311Z,5.40
2019-01-27T15:01:54.773Z,5.40
2019-01-27T15:02:59.442Z,5.30
2019-01-27T15:04:04.466Z,5.30
2019-01-27T15:05:10.879Z,5.30
2019-01-27T15:06:15.581Z,5.30
2019-01-27T15:07:20.540Z,5.20
2019-01-27T15:08:25.133Z,5.20
2019-01-27T15:09:29.771Z,5.20
2019-01-27T15:10:34.427Z,5.20
2019-01-27T15:11:38.987Z,5.20
2019-01-27T15:12:43.707Z,5.10
2019-01-27T15:13:48.309Z,5.10
2019-01-27T15:14:53.062Z,5.10
2019-01-27T15:15:58.357Z,5.10
2019-01-27T15:17:03.739Z,5.10
2019-01-27T15:18:08.430Z,5.10
2019-01-27T15:19:13.058Z,5.10
2019-01-27T15:20:23.373Z,5.10
2019-01-27T15:21:28.503Z,5.10
2019-01-27T15:22:33.059Z,5.10